Time;durP1;ratioP1;P1;durP2;ratioP2;P2;SDS_P1;SDS_P2;PMS_P1;PMS_P2;Temp;Humidity;BMP_temperature;BMP_pressure;BME280_temperature;BME280_humidity;BME280_pressure;Samples;Min_cycle;Max_cycle;Signal;HPM_P1;HPM_P2
2022/05/06 00:01:32;;;;;;;6.30;5.68;;;;;;;;;;4982075;28;20348;-82
2022/05/06 00:03:58;;;;;;;6.20;5.03;;;;;;;;;;4992564;28;20542;-82
2022/05/06 00:06:24;;;;;;;5.70;4.82;;;;;;;;;;4988879;28;20175;-82
2022/05/06 00:08:50;;;;;;;7.38;5.85;;;;;;;;;;4988701;28;20201;-82
2022/05/06 00:11:16;;;;;;;7.03;5.20;;;;;;;;;;4989550;28;20638;-82
2022/05/06 00:13:42;;;;;;;5.30;4.80;;;;;;;;;;4998816;28;20257;-82
2022/05/06 00:16:08;;;;;;;7.28;5.28;;;;;;;;;;4984018;28;20283;-82
2022/05/06 00:18:35;;;;;;;10.57;5.55;;;;;;;;;;4998391;28;20182;-82
2022/05/06 00:21:01;;;;;;;6.72;5.65;;;;;;;;;;4988200;28;20179;-82
2022/05/06 00:23:27;;;;;;;7.20;5.75;;;;;;;;;;4989241;28;20187;-82
2022/05/06 00:25:55;;;;;;;6.70;5.53;;;;;;;;;;4999290;28;20208;-82
2022/05/06 00:28:21;;;;;;;8.38;5.90;;;;;;;;;;4985214;28;20231;-82
2022/05/06 00:30:48;;;;;;;6.82;5.97;;;;;;;;;;4995602;28;20197;-82
2022/05/06 00:33:14;;;;;;;7.68;6.43;;;;;;;;;;4999131;28;20178;-82
2022/05/06 00:35:43;;;;;;;10.10;6.60;;;;;;;;;;4988000;28;20183;-82
2022/05/06 00:38:09;;;;;;;6.35;5.22;;;;;;;;;;4988541;28;20179;-82
2022/05/06 00:40:35;;;;;;;8.17;6.43;;;;;;;;;;5003207;28;20210;-82
2022/05/06 00:43:01;;;;;;;8.30;6.73;;;;;;;;;;4980805;28;20485;-82
2022/05/06 00:45:32;;;;;;;6.45;5.40;;;;;;;;;;4997535;28;20856;-82
2022/05/06 00:47:59;;;;;;;8.20;5.60;;;;;;;;;;4998789;28;20207;-82
2022/05/06 00:50:25;;;;;;;10.70;6.22;;;;;;;;;;4995629;28;20263;-82
2022/05/06 00:52:51;;;;;;;9.68;7.70;;;;;;;;;;4999686;28;20184;-82
2022/05/06 00:55:17;;;;;;;9.03;6.60;;;;;;;;;;4998594;28;20253;-82
2022/05/06 00:57:43;;;;;;;7.53;6.70;;;;;;;;;;4996856;28;20657;-82
2022/05/06 01:00:19;;;;;;;6.90;5.63;;;;;;;;;;4989173;28;20460;-83
2022/05/06 01:02:45;;;;;;;7.40;5.88;;;;;;;;;;4994989;28;20186;-82
2022/05/06 01:05:12;;;;;;;8.50;6.50;;;;;;;;;;4995860;28;20259;-82
2022/05/06 01:07:39;;;;;;;8.93;6.63;;;;;;;;;;4984581;28;20230;-82
2022/05/06 01:10:05;;;;;;;9.35;7.65;;;;;;;;;;4982268;28;20198;-82
2022/05/06 01:12:31;;;;;;;14.52;8.30;;;;;;;;;;4987720;28;20242;-82
2022/05/06 01:14:57;;;;;;;12.53;9.33;;;;;;;;;;4988582;28;20225;-82
2022/05/06 01:17:23;;;;;;;13.20;8.30;;;;;;;;;;4987175;28;20624;-82
2022/05/06 01:19:49;;;;;;;11.32;8.70;;;;;;;;;;4999973;28;20456;-82
2022/05/06 01:22:17;;;;;;;9.60;8.02;;;;;;;;;;4983960;28;20727;-82
2022/05/06 01:24:43;;;;;;;9.10;7.70;;;;;;;;;;4985722;28;20218;-82
2022/05/06 01:27:12;;;;;;;11.38;7.30;;;;;;;;;;4997071;28;20179;-82
2022/05/06 01:29:38;;;;;;;8.93;7.10;;;;;;;;;;4994626;28;20195;-83
2022/05/06 01:32:05;;;;;;;10.13;7.90;;;;;;;;;;4998748;28;20184;-83
2022/05/06 01:34:34;;;;;;;10.23;7.18;;;;;;;;;;4999127;28;20420;-82
2022/05/06 01:37:04;;;;;;;16.67;9.32;;;;;;;;;;4996116;28;20183;-82
2022/05/06 01:39:31;;;;;;;11.45;8.10;;;;;;;;;;4996624;28;20183;-83
2022/05/06 01:41:59;;;;;;;13.50;10.20;;;;;;;;;;4988412;28;20180;-82
2022/05/06 01:44:26;;;;;;;11.55;8.18;;;;;;;;;;4993369;28;20654;-82
2022/05/06 01:46:54;;;;;;;11.00;7.63;;;;;;;;;;4998350;28;20199;-82
2022/05/06 01:49:21;;;;;;;9.98;8.38;;;;;;;;;;4984003;28;20207;-83
2022/05/06 01:51:48;;;;;;;10.95;8.75;;;;;;;;;;4986652;28;20187;-82
2022/05/06 01:54:14;;;;;;;12.10;8.35;;;;;;;;;;5004869;28;20206;-82
2022/05/06 01:56:41;;;;;;;10.57;7.97;;;;;;;;;;4993978;28;20626;-82
2022/05/06 01:59:07;;;;;;;10.02;8.25;;;;;;;;;;4995334;28;20187;-83
2022/05/06 02:01:34;;;;;;;9.88;7.75;;;;;;;;;;4984695;28;20198;-83
2022/05/06 02:06:45;;;;;;;9.57;6.25;;;;;;;;;;4994916;28;20223;-82
2022/05/06 02:09:11;;;;;;;8.40;6.28;;;;;;;;;;4996735;28;20250;-83
2022/05/06 02:11:37;;;;;;;8.43;6.57;;;;;;;;;;4994088;28;20278;-82
2022/05/06 02:14:03;;;;;;;11.50;5.65;;;;;;;;;;4996060;28;20171;-83
2022/05/06 02:16:30;;;;;;;6.70;5.93;;;;;;;;;;4998212;28;20227;-83
2022/05/06 02:18:56;;;;;;;9.40;7.47;;;;;;;;;;4994759;28;20206;-82
2022/05/06 02:21:22;;;;;;;8.88;7.53;;;;;;;;;;4987724;28;20187;-83
2022/05/06 02:23:47;;;;;;;7.23;6.33;;;;;;;;;;4995286;28;20183;-83
2022/05/06 02:26:13;;;;;;;9.40;6.13;;;;;;;;;;4997637;28;20434;-83
2022/05/06 02:28:39;;;;;;;10.50;7.43;;;;;;;;;;4998357;28;20466;-83
2022/05/06 02:33:50;;;;;;;8.52;6.88;;;;;;;;;;4986041;28;20857;-82
2022/05/06 02:36:16;;;;;;;8.18;6.28;;;;;;;;;;4996847;28;20202;-83
2022/05/06 02:38:42;;;;;;;8.73;7.03;;;;;;;;;;4986300;28;20195;-83
2022/05/06 02:41:09;;;;;;;6.82;5.68;;;;;;;;;;5001224;28;20438;-83
2022/05/06 02:43:35;;;;;;;11.10;6.30;;;;;;;;;;4982407;28;20178;-83
2022/05/06 02:46:00;;;;;;;7.10;6.28;;;;;;;;;;4977724;28;20202;-83
2022/05/06 02:48:26;;;;;;;10.10;7.17;;;;;;;;;;4986202;28;20210;-83
2022/05/06 02:50:52;;;;;;;8.45;6.40;;;;;;;;;;4986027;28;20411;-83
2022/05/06 02:53:22;;;;;;;9.93;6.93;;;;;;;;;;4993409;28;20184;-83
2022/05/06 02:55:48;;;;;;;8.27;6.72;;;;;;;;;;4989137;28;20455;-83
2022/05/06 02:58:14;;;;;;;9.35;6.72;;;;;;;;;;4981702;28;20190;-82
2022/05/06 03:00:40;;;;;;;7.88;6.25;;;;;;;;;;4984900;28;20269;-83
2022/05/06 03:03:06;;;;;;;9.70;7.25;;;;;;;;;;4995403;28;20174;-83
2022/05/06 03:05:32;;;;;;;8.25;6.95;;;;;;;;;;4985686;28;20217;-83
2022/05/06 03:07:58;;;;;;;9.50;6.80;;;;;;;;;;4996111;28;20200;-83
2022/05/06 03:10:25;;;;;;;25.33;7.00;;;;;;;;;;4997387;28;20183;-83
2022/05/06 03:12:55;;;;;;;9.55;6.82;;;;;;;;;;4994055;28;20275;-82
2022/05/06 03:15:24;;;;;;;8.10;6.57;;;;;;;;;;4995427;28;20175;-83
2022/05/06 03:17:50;;;;;;;11.48;7.15;;;;;;;;;;4984706;28;20250;-83
2022/05/06 03:20:16;;;;;;;9.57;7.33;;;;;;;;;;4993505;28;20207;-83
2022/05/06 03:22:45;;;;;;;11.70;6.43;;;;;;;;;;4982920;28;20438;-82
2022/05/06 03:25:12;;;;;;;9.00;7.28;;;;;;;;;;4980625;28;20446;-83
2022/05/06 03:30:22;;;;;;;8.40;6.45;;;;;;;;;;5000070;28;20186;-83
2022/05/06 03:32:48;;;;;;;9.25;7.15;;;;;;;;;;4994897;28;20179;-83
2022/05/06 03:35:15;;;;;;;9.30;7.13;;;;;;;;;;4992095;28;20171;-82
2022/05/06 03:37:41;;;;;;;8.82;6.65;;;;;;;;;;4997175;28;20210;-83
2022/05/06 03:40:07;;;;;;;9.52;7.03;;;;;;;;;;4995129;28;20187;-83
2022/05/06 03:42:33;;;;;;;11.73;7.40;;;;;;;;;;4985136;28;20214;-83
2022/05/06 03:44:59;;;;;;;14.10;8.23;;;;;;;;;;4985918;28;20182;-83
2022/05/06 03:47:25;;;;;;;10.02;7.65;;;;;;;;;;4992419;28;20184;-83
2022/05/06 03:51:20;;;;;;;9.13;7.07;;;;;;;;;;4996413;28;20212;-83
2022/05/06 03:52:38;;;;;;;9.45;7.70;;;;;;;;;;4996565;28;20194;-83
2022/05/06 03:55:04;;;;;;;10.43;8.07;;;;;;;;;;4995085;28;20188;-83
2022/05/06 03:57:30;;;;;;;8.10;6.35;;;;;;;;;;4984867;28;20422;-83
2022/05/06 03:59:56;;;;;;;10.15;7.88;;;;;;;;;;4993579;28;20603;-83
2022/05/06 04:02:22;;;;;;;9.57;8.18;;;;;;;;;;4992982;28;20211;-83
2022/05/06 04:04:48;;;;;;;8.23;6.20;;;;;;;;;;4990971;28;20246;-83
2022/05/06 04:07:14;;;;;;;10.27;7.80;;;;;;;;;;4999668;28;20431;-83
2022/05/06 04:09:41;;;;;;;12.40;8.25;;;;;;;;;;4984544;28;20422;-84
2022/05/06 04:12:07;;;;;;;12.85;7.85;;;;;;;;;;4994595;28;20176;-83
2022/05/06 04:14:34;;;;;;;10.13;6.57;;;;;;;;;;4982109;28;20198;-84
2022/05/06 04:17:02;;;;;;;9.73;7.60;;;;;;;;;;4995531;28;20260;-83
2022/05/06 04:19:28;;;;;;;10.15;7.00;;;;;;;;;;4982174;28;20537;-83
2022/05/06 04:24:39;;;;;;;10.52;8.05;;;;;;;;;;4993832;28;20336;-83
2022/05/06 04:27:06;;;;;;;12.00;8.17;;;;;;;;;;4985790;28;20179;-83
2022/05/06 04:29:32;;;;;;;11.50;8.23;;;;;;;;;;4992034;28;21515;-83
2022/05/06 04:31:58;;;;;;;10.75;7.82;;;;;;;;;;4985180;28;20547;-83
2022/05/06 04:34:24;;;;;;;11.70;7.80;;;;;;;;;;4998585;28;20191;-83
2022/05/06 04:36:50;;;;;;;10.50;7.60;;;;;;;;;;4984475;28;20488;-83
2022/05/06 04:39:16;;;;;;;11.00;7.55;;;;;;;;;;4996059;28;20514;-83
2022/05/06 04:41:42;;;;;;;7.93;7.13;;;;;;;;;;4985114;28;20197;-83
2022/05/06 04:44:09;;;;;;;11.65;7.10;;;;;;;;;;4984645;28;20179;-83
2022/05/06 04:46:34;;;;;;;12.82;8.15;;;;;;;;;;4982663;28;20183;-83
2022/05/06 04:49:00;;;;;;;12.90;8.17;;;;;;;;;;4993862;28;20212;-82
2022/05/06 04:51:26;;;;;;;11.60;7.50;;;;;;;;;;4994954;28;20445;-83
2022/05/06 04:53:55;;;;;;;10.60;7.33;;;;;;;;;;4996676;28;20485;-83
2022/05/06 04:56:21;;;;;;;10.68;6.70;;;;;;;;;;4985032;28;20488;-83
2022/05/06 04:58:47;;;;;;;10.85;6.97;;;;;;;;;;4988664;28;20179;-83
2022/05/06 05:01:13;;;;;;;11.05;8.02;;;;;;;;;;4987897;28;20207;-83
2022/05/06 05:03:39;;;;;;;9.20;7.43;;;;;;;;;;4996291;28;20175;-83
2022/05/06 05:06:07;;;;;;;12.82;8.65;;;;;;;;;;4988978;28;20206;-83
2022/05/06 05:08:33;;;;;;;11.65;8.07;;;;;;;;;;4988657;28;20272;-83
2022/05/06 05:11:03;;;;;;;14.10;8.52;;;;;;;;;;4987777;28;20628;-83
2022/05/06 05:13:34;;;;;;;11.88;7.20;;;;;;;;;;5003895;28;20186;-83
2022/05/06 05:16:00;;;;;;;14.23;8.70;;;;;;;;;;4977316;28;20215;-83
2022/05/06 05:18:26;;;;;;;12.48;8.45;;;;;;;;;;4981995;28;20184;-83
2022/05/06 05:20:52;;;;;;;11.20;8.18;;;;;;;;;;4983914;28;20183;-83
2022/05/06 05:23:17;;;;;;;13.20;8.30;;;;;;;;;;4968837;28;20191;-83
2022/05/06 05:25:43;;;;;;;11.17;8.10;;;;;;;;;;4980790;28;20481;-83
2022/05/06 05:28:09;;;;;;;11.52;7.53;;;;;;;;;;4979258;28;20463;-83
2022/05/06 05:30:35;;;;;;;12.18;8.00;;;;;;;;;;4968759;28;20176;-83
2022/05/06 05:33:02;;;;;;;10.77;7.95;;;;;;;;;;4968619;28;20175;-83
2022/05/06 05:35:29;;;;;;;12.52;8.50;;;;;;;;;;4974146;28;20184;-83
2022/05/06 05:37:56;;;;;;;11.57;9.25;;;;;;;;;;4972184;28;20205;-85
2022/05/06 05:40:22;;;;;;;12.90;9.45;;;;;;;;;;4976371;28;20586;-87
2022/05/06 05:42:48;;;;;;;16.07;9.77;;;;;;;;;;4967956;28;20188;-85
2022/05/06 05:50:43;;;;;;;10.85;7.38;;;;;;;;;;4983945;28;20202;-85
2022/05/06 05:53:09;;;;;;;10.70;8.20;;;;;;;;;;4977510;28;20212;-87
2022/05/06 05:55:35;;;;;;;11.23;7.60;;;;;;;;;;4969210;28;20189;-87
2022/05/06 05:58:02;;;;;;;11.57;7.97;;;;;;;;;;4967915;28;20444;-88
2022/05/06 06:00:28;;;;;;;11.73;8.48;;;;;;;;;;4952216;28;20442;-88
2022/05/06 06:02:56;;;;;;;13.70;9.30;;;;;;;;;;4965901;28;20235;-87
2022/05/06 06:05:22;;;;;;;13.80;9.30;;;;;;;;;;4970689;28;20192;-88
2022/05/06 06:07:48;;;;;;;12.63;9.23;;;;;;;;;;4978998;28;20658;-86
2022/05/06 06:10:14;;;;;;;16.33;11.82;;;;;;;;;;4978234;28;20230;-88
2022/05/06 06:12:40;;;;;;;17.52;10.63;;;;;;;;;;4978595;28;20176;-86
2022/05/06 06:15:07;;;;;;;14.88;9.75;;;;;;;;;;4963585;29;20190;-86
2022/05/06 06:17:33;;;;;;;12.98;9.25;;;;;;;;;;4993821;28;20220;-86
2022/05/06 06:20:01;;;;;;;20.10;10.87;;;;;;;;;;4977937;28;20204;-87
2022/05/06 06:22:28;;;;;;;15.32;10.25;;;;;;;;;;4980361;28;20451;-87
2022/05/06 06:24:54;;;;;;;19.95;11.13;;;;;;;;;;4981674;28;20191;-87
2022/05/06 06:27:20;;;;;;;15.27;10.65;;;;;;;;;;4953537;28;20176;-85
2022/05/06 06:29:49;;;;;;;13.63;10.30;;;;;;;;;;4963192;28;20187;-87
2022/05/06 06:32:18;;;;;;;16.50;11.25;;;;;;;;;;4961911;28;20860;-87
2022/05/06 06:34:44;;;;;;;13.65;9.63;;;;;;;;;;4961158;28;20188;-87
2022/05/06 06:37:11;;;;;;;14.45;10.38;;;;;;;;;;4967156;28;20216;-88
2022/05/06 06:39:37;;;;;;;15.07;10.20;;;;;;;;;;4965997;28;20187;-84
2022/05/06 06:42:04;;;;;;;15.40;10.77;;;;;;;;;;4963646;29;20211;-87
2022/05/06 06:44:30;;;;;;;13.30;10.50;;;;;;;;;;4959675;29;20443;-87
2022/05/06 06:46:56;;;;;;;16.35;11.02;;;;;;;;;;4987415;28;20235;-88
2022/05/06 06:49:22;;;;;;;17.63;11.82;;;;;;;;;;4966868;28;20204;-87
2022/05/06 06:51:48;;;;;;;16.77;12.33;;;;;;;;;;4987409;28;20210;-88
2022/05/06 06:54:14;;;;;;;17.17;11.73;;;;;;;;;;4963620;29;20424;-88
2022/05/06 06:56:40;;;;;;;21.75;11.90;;;;;;;;;;4988885;28;20192;-87
2022/05/06 06:59:06;;;;;;;17.17;11.95;;;;;;;;;;4964933;28;20183;-87
2022/05/06 07:01:33;;;;;;;19.23;12.80;;;;;;;;;;4963780;28;20219;-86
2022/05/06 07:04:00;;;;;;;16.00;12.20;;;;;;;;;;4966074;28;20455;-90
2022/05/06 07:11:56;;;;;;;18.70;11.63;;;;;;;;;;4965273;28;20184;-82
2022/05/06 07:14:25;;;;;;;18.52;12.02;;;;;;;;;;4963927;28;20222;-87
2022/05/06 07:16:51;;;;;;;19.75;11.55;;;;;;;;;;4965237;28;20658;-83
2022/05/06 07:19:17;;;;;;;15.45;12.13;;;;;;;;;;4982748;28;20741;-82
2022/05/06 07:21:44;;;;;;;19.65;12.50;;;;;;;;;;4963665;28;20207;-82
2022/05/06 07:24:10;;;;;;;19.38;13.90;;;;;;;;;;4981327;28;20190;-88
2022/05/06 07:26:36;;;;;;;22.15;12.00;;;;;;;;;;4964869;28;20183;-84
2022/05/06 07:29:02;;;;;;;15.10;11.40;;;;;;;;;;4980923;28;20260;-83
2022/05/06 07:31:28;;;;;;;17.05;12.70;;;;;;;;;;4982248;28;20320;-83
2022/05/06 07:33:55;;;;;;;19.13;11.73;;;;;;;;;;4982346;28;20187;-82
2022/05/06 07:36:23;;;;;;;14.82;10.75;;;;;;;;;;4971821;28;20437;-85
2022/05/06 07:38:49;;;;;;;17.08;12.10;;;;;;;;;;4956116;28;20540;-84
2022/05/06 07:41:15;;;;;;;16.23;10.50;;;;;;;;;;4981037;28;20180;-83
2022/05/06 07:43:41;;;;;;;17.10;10.70;;;;;;;;;;4962497;28;20207;-86
2022/05/06 07:46:09;;;;;;;20.43;12.60;;;;;;;;;;4980600;28;20467;-84
2022/05/06 07:48:35;;;;;;;17.55;12.38;;;;;;;;;;4966056;28;20463;-84
2022/05/06 07:51:01;;;;;;;16.38;10.80;;;;;;;;;;4954725;29;20214;-83
2022/05/06 07:53:27;;;;;;;13.85;10.05;;;;;;;;;;4976047;28;20177;-84
2022/05/06 07:55:53;;;;;;;13.67;9.87;;;;;;;;;;4966969;28;20188;-85
2022/05/06 07:58:19;;;;;;;13.03;10.00;;;;;;;;;;4971888;28;20435;-83
2022/05/06 08:00:45;;;;;;;16.58;11.25;;;;;;;;;;4980637;28;21105;-83
2022/05/06 08:05:59;;;;;;;12.25;9.65;;;;;;;;;;4978521;28;20213;-84
2022/05/06 08:08:29;;;;;;;13.48;9.65;;;;;;;;;;4968893;28;20200;-83
2022/05/06 08:10:55;;;;;;;18.63;9.60;;;;;;;;;;4968948;28;20275;-87
2022/05/06 08:13:21;;;;;;;11.60;8.80;;;;;;;;;;4980397;28;20194;-90
2022/05/06 08:15:48;;;;;;;12.77;9.45;;;;;;;;;;4959044;28;20226;-89
2022/05/06 08:18:14;;;;;;;11.95;8.90;;;;;;;;;;5003762;28;20242;-87
2022/05/06 08:20:41;;;;;;;10.45;9.10;;;;;;;;;;5000463;28;20187;-87
2022/05/06 08:23:08;;;;;;;11.23;9.20;;;;;;;;;;4984729;28;20191;-84
2022/05/06 08:25:34;;;;;;;11.05;7.85;;;;;;;;;;4999523;28;20195;-84
2022/05/06 08:28:00;;;;;;;9.98;7.50;;;;;;;;;;5003931;28;20264;-85
2022/05/06 08:30:26;;;;;;;12.20;8.47;;;;;;;;;;5006050;28;20186;-83
2022/05/06 08:32:52;;;;;;;10.23;7.93;;;;;;;;;;5003279;28;20485;-86
2022/05/06 08:35:19;;;;;;;11.25;8.95;;;;;;;;;;4993255;28;20182;-82
2022/05/06 08:37:46;;;;;;;10.27;7.15;;;;;;;;;;4986125;28;20214;-85
2022/05/06 08:40:21;;;;;;;8.35;7.07;;;;;;;;;;4987728;28;20223;-84
2022/05/06 08:42:47;;;;;;;11.57;7.75;;;;;;;;;;4987022;28;20250;-85
2022/05/06 08:50:51;;;;;;;7.15;5.70;;;;;;;;;;5003214;28;20198;-85
2022/05/06 08:53:17;;;;;;;10.10;7.80;;;;;;;;;;5003430;28;20179;-85
2022/05/06 08:55:43;;;;;;;8.95;6.65;;;;;;;;;;4988069;28;20197;-83
2022/05/06 08:58:09;;;;;;;9.50;6.80;;;;;;;;;;5003534;28;20184;-85
2022/05/06 09:00:35;;;;;;;8.13;5.80;;;;;;;;;;4987816;28;20445;-82
2022/05/06 09:03:01;;;;;;;7.80;6.32;;;;;;;;;;5004425;28;20190;-87
2022/05/06 09:05:27;;;;;;;11.13;7.77;;;;;;;;;;5002330;28;20187;-84
2022/05/06 09:07:57;;;;;;;7.20;6.15;;;;;;;;;;4998492;28;20479;-84
2022/05/06 09:10:23;;;;;;;10.70;6.93;;;;;;;;;;4997916;28;20191;-83
2022/05/06 09:12:52;;;;;;;7.38;6.10;;;;;;;;;;5003437;28;20184;-84
2022/05/06 09:18:05;;;;;;;8.77;6.40;;;;;;;;;;5004348;28;20209;-84
2022/05/06 09:20:31;;;;;;;7.03;5.55;;;;;;;;;;4987807;28;20197;-83
2022/05/06 09:22:57;;;;;;;6.95;6.00;;;;;;;;;;5002951;28;20238;-84
2022/05/06 09:25:36;;;;;;;9.93;6.35;;;;;;;;;;5002716;28;20198;-85
2022/05/06 09:28:02;;;;;;;9.50;6.05;;;;;;;;;;4970839;28;20307;-84
2022/05/06 09:30:28;;;;;;;7.88;5.70;;;;;;;;;;5005592;28;20629;-83
2022/05/06 09:32:54;;;;;;;5.47;4.97;;;;;;;;;;4987024;28;20190;-84
2022/05/06 09:35:20;;;;;;;7.33;5.03;;;;;;;;;;5001915;28;20187;-85
2022/05/06 09:37:47;;;;;;;6.43;5.78;;;;;;;;;;5001435;28;20434;-83
2022/05/06 09:40:20;;;;;;;6.45;5.82;;;;;;;;;;4986988;28;20254;-83
2022/05/06 09:43:00;;;;;;;5.93;5.32;;;;;;;;;;4985979;28;20189;-83
2022/05/06 09:45:39;;;;;;;6.20;5.60;;;;;;;;;;4984646;28;20211;-82
2022/05/06 09:48:06;;;;;;;5.63;4.97;;;;;;;;;;4987987;28;20230;-84
2022/05/06 09:50:36;;;;;;;8.88;5.80;;;;;;;;;;5002160;28;20179;-84
2022/05/06 09:53:03;;;;;;;8.95;6.97;;;;;;;;;;5003286;28;20178;-83
2022/05/06 09:55:29;;;;;;;7.30;6.13;;;;;;;;;;4987437;28;20183;-82
2022/05/06 09:57:59;;;;;;;10.20;6.88;;;;;;;;;;5002558;28;20188;-84
2022/05/06 10:00:26;;;;;;;10.48;7.00;;;;;;;;;;4986991;28;20247;-83
2022/05/06 10:02:52;;;;;;;6.53;5.93;;;;;;;;;;4994465;28;20212;-84
2022/05/06 10:05:18;;;;;;;6.20;5.63;;;;;;;;;;4997673;28;20517;-84
2022/05/06 10:07:45;;;;;;;8.02;6.85;;;;;;;;;;5001242;28;20418;-84
2022/05/06 10:10:22;;;;;;;6.20;5.57;;;;;;;;;;5002182;28;20185;-83
2022/05/06 10:12:53;;;;;;;5.78;5.18;;;;;;;;;;4995301;28;20431;-85
2022/05/06 10:15:20;;;;;;;6.18;5.45;;;;;;;;;;5005270;28;20175;-84
2022/05/06 10:17:54;;;;;;;5.30;4.85;;;;;;;;;;4986764;28;20235;-85
2022/05/06 10:20:35;;;;;;;5.63;5.13;;;;;;;;;;4986956;28;20188;-84
2022/05/06 10:23:07;;;;;;;5.85;5.18;;;;;;;;;;5002821;28;20184;-84
2022/05/06 10:25:42;;;;;;;5.07;4.60;;;;;;;;;;5001818;28;20209;-81
2022/05/06 10:34:12;;;;;;;5.90;4.82;;;;;;;;;;4987778;28;20192;-83
2022/05/06 10:36:48;;;;;;;4.53;4.05;;;;;;;;;;4985823;28;20187;-83
2022/05/06 10:39:20;;;;;;;4.45;4.05;;;;;;;;;;5004299;28;20178;-83
2022/05/06 10:42:06;;;;;;;4.43;4.03;;;;;;;;;;4987013;28;20538;-84
2022/05/06 10:44:35;;;;;;;5.20;4.57;;;;;;;;;;5001260;28;20438;-85
2022/05/06 10:47:22;;;;;;;7.03;3.95;;;;;;;;;;4986342;28;20424;-83
2022/05/06 10:49:52;;;;;;;6.35;5.20;;;;;;;;;;4984617;28;20194;-82
2022/05/06 10:52:28;;;;;;;6.07;5.57;;;;;;;;;;4986541;28;20642;-84
2022/05/06 10:55:00;;;;;;;6.50;5.93;;;;;;;;;;4986251;28;20174;-84
2022/05/06 10:57:47;;;;;;;5.38;4.97;;;;;;;;;;4986445;28;20177;-84
2022/05/06 11:00:13;;;;;;;4.57;4.18;;;;;;;;;;5003148;28;20219;-83
2022/05/06 11:02:40;;;;;;;5.15;4.00;;;;;;;;;;4986009;28;20192;-84
2022/05/06 11:05:06;;;;;;;4.40;4.00;;;;;;;;;;4999935;28;20177;-83
2022/05/06 11:07:33;;;;;;;6.07;5.18;;;;;;;;;;5001321;28;20184;-83
2022/05/06 11:10:00;;;;;;;4.93;4.43;;;;;;;;;;5001001;28;20209;-84
2022/05/06 11:12:40;;;;;;;4.25;3.95;;;;;;;;;;4986311;28;20654;-83
2022/05/06 11:15:08;;;;;;;4.03;3.55;;;;;;;;;;5002257;28;20536;-84
2022/05/06 11:17:34;;;;;;;6.38;4.75;;;;;;;;;;4986128;28;20247;-84
2022/05/06 11:20:00;;;;;;;4.88;4.35;;;;;;;;;;5000427;28;20756;-84
2022/05/06 11:22:27;;;;;;;4.40;4.00;;;;;;;;;;4986026;28;20184;-82
2022/05/06 11:24:56;;;;;;;4.65;4.00;;;;;;;;;;5000819;28;20205;-84
2022/05/06 11:27:22;;;;;;;4.88;4.47;;;;;;;;;;4999654;28;20219;-84
2022/05/06 11:29:51;;;;;;;6.20;5.60;;;;;;;;;;4990678;28;20208;-87
2022/05/06 11:32:17;;;;;;;6.65;4.95;;;;;;;;;;5000197;28;20184;-86
2022/05/06 11:34:55;;;;;;;5.57;4.60;;;;;;;;;;4999373;28;20201;-82
2022/05/06 11:37:22;;;;;;;4.70;3.85;;;;;;;;;;4999705;28;20189;-82
2022/05/06 11:39:48;;;;;;;4.70;4.25;;;;;;;;;;4982746;28;20190;-83
2022/05/06 11:42:24;;;;;;;5.45;4.40;;;;;;;;;;4986257;28;20688;-83
2022/05/06 11:47:41;;;;;;;4.88;4.47;;;;;;;;;;5002306;28;20271;-82
2022/05/06 11:50:08;;;;;;;6.03;5.43;;;;;;;;;;4985138;28;20649;-83
2022/05/06 11:52:34;;;;;;;6.05;4.53;;;;;;;;;;4999931;28;20823;-81
2022/05/06 11:55:01;;;;;;;5.45;4.93;;;;;;;;;;5001251;28;20626;-82
2022/05/06 11:57:27;;;;;;;4.20;3.80;;;;;;;;;;5003117;28;20218;-83
2022/05/06 11:59:53;;;;;;;5.50;4.10;;;;;;;;;;5000205;28;20425;-81
2022/05/06 12:02:19;;;;;;;4.23;3.87;;;;;;;;;;4995028;28;20503;-82
2022/05/06 12:04:45;;;;;;;4.10;3.70;;;;;;;;;;4985225;28;20445;-83
2022/05/06 12:07:11;;;;;;;3.53;3.23;;;;;;;;;;4989592;28;20421;-83
2022/05/06 12:09:44;;;;;;;3.17;2.97;;;;;;;;;;4987209;28;20450;-81
2022/05/06 12:12:11;;;;;;;3.37;3.07;;;;;;;;;;4989972;28;20754;-83
2022/05/06 12:14:40;;;;;;;5.30;4.27;;;;;;;;;;5005565;28;20434;-82
2022/05/06 12:17:11;;;;;;;3.83;3.53;;;;;;;;;;4988557;28;20503;-82
2022/05/06 12:19:42;;;;;;;3.23;2.93;;;;;;;;;;4988873;28;20406;-80
2022/05/06 12:22:09;;;;;;;3.70;3.17;;;;;;;;;;4997816;28;20797;-82
2022/05/06 12:24:39;;;;;;;2.40;2.30;;;;;;;;;;4985211;28;20409;-80
2022/05/06 12:27:06;;;;;;;2.60;2.40;;;;;;;;;;5006967;28;20413;-82
2022/05/06 12:29:36;;;;;;;3.37;3.17;;;;;;;;;;5003213;28;20493;-84
2022/05/06 12:32:03;;;;;;;3.43;3.20;;;;;;;;;;4997953;28;20470;-82
2022/05/06 12:34:31;;;;;;;3.07;2.87;;;;;;;;;;5000224;28;20435;-81
2022/05/06 12:37:16;;;;;;;2.80;2.60;;;;;;;;;;5003781;28;20441;-83
2022/05/06 12:39:45;;;;;;;2.67;2.20;;;;;;;;;;4987509;28;20477;-83
2022/05/06 12:42:15;;;;;;;3.10;2.57;;;;;;;;;;5005572;28;20922;-83
2022/05/06 12:44:41;;;;;;;2.93;2.73;;;;;;;;;;4985974;28;20454;-86
2022/05/06 12:49:39;;;;;;;2.50;2.30;;;;;;;;;;5003192;28;20455;-81
2022/05/06 12:50:00;;;;;;;2.60;2.40;;;;;;;;;;5003565;28;20460;-81
2022/05/06 12:52:26;;;;;;;4.00;3.20;;;;;;;;;;4988407;28;20530;-81
2022/05/06 12:54:52;;;;;;;2.60;2.17;;;;;;;;;;4987609;28;20452;-80
2022/05/06 12:57:19;;;;;;;3.00;2.70;;;;;;;;;;5006474;28;20437;-80
2022/05/06 12:59:45;;;;;;;1.83;1.73;;;;;;;;;;5005072;28;20738;-79
2022/05/06 13:02:11;;;;;;;2.33;1.47;;;;;;;;;;4988189;28;20488;-80
2022/05/06 13:04:37;;;;;;;7.33;2.37;;;;;;;;;;5000527;28;20442;-79
2022/05/06 13:07:03;;;;;;;2.40;2.20;;;;;;;;;;4987223;28;20458;-80
2022/05/06 13:09:30;;;;;;;2.80;1.87;;;;;;;;;;4987254;28;20491;-79
2022/05/06 13:11:56;;;;;;;3.37;2.20;;;;;;;;;;5005706;28;20436;-79
2022/05/06 13:14:23;;;;;;;2.20;2.00;;;;;;;;;;4984459;28;20436;-87
2022/05/06 13:16:49;;;;;;;1.90;1.80;;;;;;;;;;4998615;28;20477;-79
2022/05/06 13:19:15;;;;;;;1.43;1.30;;;;;;;;;;4998949;28;20537;-78
2022/05/06 13:21:41;;;;;;;2.57;1.47;;;;;;;;;;4985639;28;20544;-79
2022/05/06 13:24:07;;;;;;;1.60;1.50;;;;;;;;;;4999109;28;20421;-79
2022/05/06 13:26:35;;;;;;;2.00;1.90;;;;;;;;;;5001561;28;20430;-79
2022/05/06 13:29:01;;;;;;;1.50;1.40;;;;;;;;;;4995446;28;20538;-82
2022/05/06 13:31:27;;;;;;;1.73;1.63;;;;;;;;;;4998476;28;20447;-79
2022/05/06 13:33:53;;;;;;;1.60;1.50;;;;;;;;;;4994025;28;20439;-87
2022/05/06 13:36:19;;;;;;;1.37;1.27;;;;;;;;;;5001933;28;20435;-82
2022/05/06 13:38:45;;;;;;;1.83;1.50;;;;;;;;;;4985575;28;20445;-83
2022/05/06 13:41:11;;;;;;;1.67;1.57;;;;;;;;;;5001374;28;20442;-83
2022/05/06 13:43:37;;;;;;;1.67;1.57;;;;;;;;;;4997205;28;20436;-82
2022/05/06 13:46:03;;;;;;;1.47;1.37;;;;;;;;;;4996804;28;20455;-83
2022/05/06 13:48:29;;;;;;;2.27;2.17;;;;;;;;;;4985564;28;20871;-84
2022/05/06 13:50:56;;;;;;;4.60;1.70;;;;;;;;;;4977493;28;20414;-80
2022/05/06 13:53:22;;;;;;;1.83;1.73;;;;;;;;;;4994594;28;20437;-81
2022/05/06 14:01:18;;;;;;;1.97;1.87;;;;;;;;;;4995767;28;20437;-80
2022/05/06 14:03:44;;;;;;;4.17;1.83;;;;;;;;;;4994856;28;20403;-81
2022/05/06 14:06:10;;;;;;;3.13;1.70;;;;;;;;;;4987871;28;20418;-81
2022/05/06 14:08:42;;;;;;;2.30;1.60;;;;;;;;;;4984487;28;20460;-83
2022/05/06 14:11:08;;;;;;;2.00;1.90;;;;;;;;;;4986150;28;20493;-80
2022/05/06 14:13:34;;;;;;;1.70;1.60;;;;;;;;;;5000184;28;20472;-83
2022/05/06 14:16:01;;;;;;;1.40;1.30;;;;;;;;;;4995160;28;20505;-81
2022/05/06 14:18:27;;;;;;;2.03;1.60;;;;;;;;;;4986422;28;20402;-82
2022/05/06 14:20:53;;;;;;;1.20;1.10;;;;;;;;;;4994726;28;20767;-84
2022/05/06 14:23:20;;;;;;;1.70;1.60;;;;;;;;;;4986559;28;20437;-81
2022/05/06 14:25:46;;;;;;;2.17;1.70;;;;;;;;;;4983280;28;20917;-82
2022/05/06 14:28:12;;;;;;;2.10;1.63;;;;;;;;;;4982328;28;20470;-81
2022/05/06 14:30:41;;;;;;;1.87;1.70;;;;;;;;;;4984588;28;20412;-80
2022/05/06 14:33:07;;;;;;;3.20;1.70;;;;;;;;;;4995730;28;20506;-80
2022/05/06 14:35:37;;;;;;;1.27;1.17;;;;;;;;;;4992782;28;20411;-79
2022/05/06 14:38:04;;;;;;;2.37;2.07;;;;;;;;;;4985812;28;20444;-89
2022/05/06 14:40:30;;;;;;;1.77;1.47;;;;;;;;;;4999776;28;20417;-84
2022/05/06 14:42:57;;;;;;;2.03;1.60;;;;;;;;;;4993865;28;20434;-82
2022/05/06 14:45:26;;;;;;;1.17;1.10;;;;;;;;;;4996410;28;20417;-82
2022/05/06 14:47:53;;;;;;;1.50;1.40;;;;;;;;;;4994353;28;20428;-81
2022/05/06 14:50:19;;;;;;;2.90;1.53;;;;;;;;;;4985054;28;20681;-82
2022/05/06 14:52:45;;;;;;;1.43;1.33;;;;;;;;;;4994404;28;20461;-79
2022/05/06 14:55:14;;;;;;;1.77;1.67;;;;;;;;;;4981254;28;20430;-81
2022/05/06 14:57:43;;;;;;;1.87;1.67;;;;;;;;;;4984159;28;20482;-83
2022/05/06 15:00:11;;;;;;;3.60;1.23;;;;;;;;;;4994602;28;20418;-81
2022/05/06 15:02:38;;;;;;;1.53;1.40;;;;;;;;;;4983540;28;20823;-81
2022/05/06 15:05:04;;;;;;;2.10;1.80;;;;;;;;;;4995743;28;20424;-81
2022/05/06 15:07:30;;;;;;;1.60;1.47;;;;;;;;;;4982472;28;20462;-81
2022/05/06 15:10:03;;;;;;;1.60;1.50;;;;;;;;;;4976102;28;20471;-82
2022/05/06 15:12:32;;;;;;;1.70;1.60;;;;;;;;;;4994734;28;20461;-81
2022/05/06 15:14:58;;;;;;;1.60;1.30;;;;;;;;;;4995361;28;20410;-82
2022/05/06 15:17:24;;;;;;;1.90;1.40;;;;;;;;;;4985224;28;20531;-81
2022/05/06 15:19:50;;;;;;;3.27;1.50;;;;;;;;;;4996542;28;20449;-83
2022/05/06 15:22:22;;;;;;;1.40;1.30;;;;;;;;;;4994863;28;20409;-81
2022/05/06 15:24:48;;;;;;;1.60;1.50;;;;;;;;;;4993679;28;20443;-81